createdAt,value
2022-08-20T00:02:45.649Z,3.45
2022-08-20T00:05:15.022Z,3.60
2022-08-20T00:07:42.110Z,3.45
2022-08-20T00:10:09.760Z,3.70
2022-08-20T00:12:38.097Z,3.97
2022-08-20T00:15:06.817Z,3.40
2022-08-20T00:17:39.836Z,3.28
2022-08-20T00:20:12.586Z,2.90
2022-08-20T00:22:39.934Z,4.00
2022-08-20T00:25:09.001Z,3.25
2022-08-20T00:27:36.297Z,3.65
2022-08-20T00:30:08.011Z,3.67
2022-08-20T00:32:44.031Z,4.35
2022-08-20T00:35:12.925Z,3.20
2022-08-20T00:37:40.170Z,3.65
2022-08-20T00:40:22.081Z,3.28
2022-08-20T00:42:59.172Z,3.60
2022-08-20T00:45:33.012Z,2.38
2022-08-20T00:48:03.629Z,3.72
2022-08-20T00:50:37.328Z,2.80
2022-08-20T00:53:08.445Z,3.42
2022-08-20T00:55:36.779Z,3.72
2022-08-20T00:58:09.588Z,3.00
2022-08-20T01:00:45.283Z,2.90
2022-08-20T01:03:15.820Z,3.17
2022-08-20T01:05:48.388Z,2.90
2022-08-20T01:08:24.396Z,3.28
2022-08-20T01:11:04.818Z,2.90
2022-08-20T01:13:31.878Z,2.58
2022-08-20T01:16:01.502Z,2.70
2022-08-20T01:18:28.804Z,3.20
2022-08-20T01:21:03.197Z,2.13
2022-08-20T01:23:48.903Z,2.42
2022-08-20T01:26:26.280Z,2.22
2022-08-20T01:29:20.290Z,2.03
2022-08-20T01:31:47.234Z,2.42
2022-08-20T01:34:20.167Z,2.50
2022-08-20T01:36:55.575Z,3.15
2022-08-20T01:39:29.442Z,2.15
2022-08-20T01:42:20.492Z,1.90
2022-08-20T01:44:48.019Z,2.30
2022-08-20T01:47:27.716Z,2.60
2022-08-20T01:50:13.468Z,1.98
2022-08-20T01:53:06.016Z,2.20
2022-08-20T01:55:33.344Z,1.83
2022-08-20T01:58:01.576Z,2.10
2022-08-20T02:00:28.788Z,1.85
2022-08-20T02:02:55.877Z,2.03
2022-08-20T02:05:23.074Z,2.13
2022-08-20T02:07:50.584Z,2.35
2022-08-20T02:10:19.196Z,1.92
2022-08-20T02:12:46.219Z,2.00
2022-08-20T02:15:13.939Z,2.30
2022-08-20T02:17:41.893Z,2.20
2022-08-20T02:20:20.367Z,1.90
2022-08-20T02:22:55.070Z,2.00
2022-08-20T02:25:26.528Z,1.85
2022-08-20T02:27:56.263Z,1.90
2022-08-20T02:30:40.065Z,2.38
2022-08-20T02:33:11.388Z,2.00
2022-08-20T02:35:45.329Z,1.70
2022-08-20T02:38:12.736Z,1.80
2022-08-20T02:40:41.357Z,2.05
2022-08-20T02:43:08.281Z,2.08
2022-08-20T02:45:43.888Z,2.13
2022-08-20T02:48:23.330Z,2.03
2022-08-20T02:51:01.390Z,1.90
2022-08-20T02:53:31.407Z,2.20
2022-08-20T02:55:59.042Z,1.90
2022-08-20T02:58:26.931Z,1.95
2022-08-20T03:00:56.694Z,2.00
2022-08-20T03:03:24.370Z,2.30
2022-08-20T03:05:56.126Z,1.90
2022-08-20T03:08:25.126Z,2.03
2022-08-20T03:10:52.911Z,2.08
2022-08-20T03:13:21.562Z,1.90
2022-08-20T03:15:58.605Z,2.22
2022-08-20T03:18:39.281Z,2.35
2022-08-20T03:21:09.903Z,1.95
2022-08-20T03:23:40.418Z,2.22
2022-08-20T03:26:11.931Z,1.70
2022-08-20T03:28:39.465Z,1.80
2022-08-20T03:31:07.490Z,1.67
2022-08-20T03:33:35.101Z,2.40
2022-08-20T03:36:02.272Z,2.10
2022-08-20T03:38:32.868Z,1.92
2022-08-20T03:41:02.124Z,1.80
2022-08-20T03:43:29.217Z,2.53
2022-08-20T03:45:56.696Z,1.90
2022-08-20T03:48:23.752Z,1.80
2022-08-20T03:50:51.482Z,2.05
2022-08-20T03:53:18.927Z,1.95
2022-08-20T03:55:53.911Z,2.22
2022-08-20T03:58:29.900Z,2.22
2022-08-20T04:01:01.150Z,1.95
2022-08-20T04:03:28.776Z,2.40
2022-08-20T04:05:55.941Z,2.55
2022-08-20T04:08:27.567Z,2.20
2022-08-20T04:10:57.613Z,2.00
2022-08-20T04:13:26.825Z,2.60
2022-08-20T04:15:57.615Z,3.28
2022-08-20T04:18:26.235Z,2.25
2022-08-20T04:20:54.504Z,2.10
2022-08-20T04:23:22.616Z,2.38
2022-08-20T04:25:49.660Z,2.15
2022-08-20T04:28:25.333Z,2.63
2022-08-20T04:30:56.764Z,2.00
2022-08-20T04:33:33.903Z,2.42
2022-08-20T04:36:05.618Z,2.08
2022-08-20T04:38:48.208Z,2.08
2022-08-20T04:41:23.738Z,2.08
2022-08-20T04:43:54.125Z,1.90
2022-08-20T04:46:25.565Z,2.55
2022-08-20T04:48:53.640Z,2.50
2022-08-20T04:51:23.056Z,2.75
2022-08-20T04:53:53.664Z,2.60
2022-08-20T04:56:25.983Z,2.60
2022-08-20T04:58:56.852Z,3.25
2022-08-20T05:01:26.123Z,2.45
2022-08-20T05:03:55.141Z,2.13
2022-08-20T05:06:28.649Z,2.42
2022-08-20T05:08:59.143Z,2.47
2022-08-20T05:11:34.425Z,3.15
2022-08-20T05:14:11.169Z,2.45
2022-08-20T05:16:40.723Z,2.55
2022-08-20T05:19:11.760Z,2.15
2022-08-20T05:21:40.196Z,2.88
2022-08-20T05:24:07.991Z,2.50
2022-08-20T05:26:35.271Z,2.50
2022-08-20T05:29:04.914Z,2.90
2022-08-20T05:31:33.894Z,2.45
2022-08-20T05:34:10.651Z,1.90
2022-08-20T05:36:48.131Z,2.25
2022-08-20T05:39:18.951Z,1.90
2022-08-20T05:41:51.154Z,2.17
2022-08-20T05:44:19.598Z,1.90
2022-08-20T05:46:48.021Z,2.08
2022-08-20T05:49:21.176Z,2.70
2022-08-20T05:51:51.274Z,2.40
2022-08-20T05:54:18.400Z,2.03
2022-08-20T05:56:45.455Z,2.03
2022-08-20T05:59:14.150Z,2.35
2022-08-20T06:01:42.802Z,2.10
2022-08-20T06:04:31.971Z,2.10
2022-08-20T06:07:05.735Z,2.58
2022-08-20T06:09:35.066Z,2.20
2022-08-20T06:12:06.692Z,2.60
2022-08-20T06:14:34.622Z,2.45
2022-08-20T06:17:13.561Z,2.03
2022-08-20T06:19:45.082Z,3.25
2022-08-20T06:22:20.286Z,2.28
2022-08-20T06:24:54.986Z,2.35
2022-08-20T06:27:22.445Z,2.08
2022-08-20T06:29:50.940Z,3.83
2022-08-20T06:32:28.709Z,3.83
2022-08-20T06:35:05.936Z,2.63
2022-08-20T06:37:38.696Z,2.47
2022-08-20T06:40:24.567Z,3.08
2022-08-20T06:42:52.778Z,2.70
2022-08-20T06:45:25.679Z,2.60
2022-08-20T06:47:56.113Z,3.15
2022-08-20T06:50:43.147Z,3.70
2022-08-20T06:53:19.297Z,3.30
2022-08-20T06:55:53.866Z,4.63
2022-08-20T06:58:37.142Z,2.92
2022-08-20T07:01:10.841Z,4.28
2022-08-20T07:03:42.358Z,5.38
2022-08-20T07:06:21.366Z,7.75
2022-08-20T07:08:48.375Z,7.57
2022-08-20T07:11:15.415Z,6.35
2022-08-20T07:13:42.575Z,3.90
2022-08-20T07:16:09.595Z,6.47
2022-08-20T07:18:36.732Z,6.20
2022-08-20T07:21:04.186Z,4.10
2022-08-20T07:23:31.714Z,6.50
2022-08-20T07:25:59.028Z,8.48
2022-08-20T07:28:32.504Z,7.40
2022-08-20T07:31:20.449Z,7.28
2022-08-20T07:33:50.397Z,7.72
2022-08-20T07:36:18.570Z,7.85
2022-08-20T07:38:47.446Z,6.88
2022-08-20T07:41:15.071Z,6.75
2022-08-20T07:43:45.766Z,7.20
2022-08-20T07:46:16.572Z,5.70
2022-08-20T07:48:46.927Z,6.85
2022-08-20T07:51:22.375Z,6.40
2022-08-20T07:53:51.744Z,7.32
2022-08-20T07:56:24.721Z,7.13
2022-08-20T07:58:56.285Z,6.65
2022-08-20T08:01:31.364Z,6.22
2022-08-20T08:04:00.564Z,6.60
2022-08-20T08:06:31.973Z,5.90
2022-08-20T08:09:09.666Z,4.78
2022-08-20T08:11:46.485Z,6.32
2022-08-20T08:14:17.063Z,5.82
2022-08-20T08:16:45.307Z,6.00
2022-08-20T08:19:16.218Z,7.00
2022-08-20T08:21:44.404Z,5.95
2022-08-20T08:24:15.419Z,8.57
2022-08-20T08:26:44.448Z,8.48
2022-08-20T08:29:12.658Z,7.88
2022-08-20T08:31:41.022Z,7.82
2022-08-20T08:34:08.711Z,8.98
2022-08-20T08:36:36.869Z,9.50
2022-08-20T08:39:03.881Z,8.73
2022-08-20T08:41:50.153Z,8.43
2022-08-20T08:44:26.897Z,7.00
2022-08-20T08:47:19.928Z,7.78
2022-08-20T08:49:48.139Z,8.55
2022-08-20T08:52:26.158Z,8.73
2022-08-20T08:55:03.823Z,7.95
2022-08-20T08:57:31.911Z,8.23
2022-08-20T09:00:15.343Z,7.57
2022-08-20T09:03:07.554Z,6.97
2022-08-20T09:05:50.721Z,8.30
2022-08-20T09:08:24.656Z,7.95
2022-08-20T09:10:52.357Z,8.18
2022-08-20T09:13:19.322Z,8.48
2022-08-20T09:15:46.523Z,8.68
2022-08-20T09:18:13.679Z,8.40
2022-08-20T09:20:40.635Z,7.28
2022-08-20T09:23:07.695Z,7.65
2022-08-20T09:25:34.789Z,7.68
2022-08-20T09:28:02.161Z,8.10
2022-08-20T09:30:31.008Z,7.82
2022-08-20T09:33:02.498Z,7.38
2022-08-20T09:35:30.283Z,7.85
2022-08-20T09:37:57.563Z,7.90
2022-08-20T09:40:24.652Z,7.80
2022-08-20T09:42:52.031Z,6.72
2022-08-20T09:45:20.436Z,7.32
2022-08-20T09:47:56.305Z,7.57
2022-08-20T09:50:27.484Z,6.40
2022-08-20T09:52:58.162Z,6.10
2022-08-20T09:55:36.850Z,6.88
2022-08-20T09:58:17.679Z,7.00
2022-08-20T10:00:48.306Z,6.32
2022-08-20T10:03:15.867Z,6.43
2022-08-20T10:05:45.251Z,6.72
2022-08-20T10:08:13.273Z,6.25
2022-08-20T10:10:42.660Z,6.68
2022-08-20T10:13:13.257Z,6.30
2022-08-20T10:15:42.782Z,6.28
2022-08-20T10:18:12.120Z,6.90
2022-08-20T10:20:40.181Z,6.97
2022-08-20T10:23:07.550Z,5.10
2022-08-20T10:25:35.046Z,5.70
2022-08-20T10:28:02.316Z,6.07
2022-08-20T10:30:29.774Z,6.13
2022-08-20T10:32:58.497Z,5.75
2022-08-20T10:35:25.732Z,4.82
2022-08-20T10:37:53.146Z,5.93
2022-08-20T10:40:22.936Z,5.63
2022-08-20T10:42:50.127Z,6.70
2022-08-20T10:45:17.646Z,6.50
2022-08-20T10:47:45.045Z,6.07
2022-08-20T10:50:16.743Z,6.13
2022-08-20T10:52:43.958Z,6.05
2022-08-20T10:55:11.827Z,6.00
2022-08-20T10:57:41.645Z,6.38
2022-08-20T11:00:17.367Z,6.03
2022-08-20T11:02:44.389Z,5.82
2022-08-20T11:05:11.473Z,6.15
2022-08-20T11:07:52.762Z,5.93
2022-08-20T11:10:26.722Z,7.22
2022-08-20T11:12:54.533Z,6.70
2022-08-20T11:15:22.525Z,7.38
2022-08-20T11:17:49.834Z,6.38
2022-08-20T11:20:20.862Z,5.38
2022-08-20T11:22:48.312Z,5.45
2022-08-20T11:25:15.599Z,6.68
2022-08-20T11:27:47.324Z,6.07
2022-08-20T11:30:31.561Z,6.72
2022-08-20T11:33:01.068Z,5.82
2022-08-20T11:35:43.389Z,6.88
2022-08-20T11:38:17.842Z,6.88
2022-08-20T11:40:47.046Z,6.05
2022-08-20T11:43:17.208Z,6.43
2022-08-20T11:45:50.021Z,6.55
2022-08-20T11:48:18.206Z,5.80
2022-08-20T11:50:46.335Z,5.90
2022-08-20T11:53:14.853Z,6.07
2022-08-20T11:55:43.181Z,6.78
2022-08-20T11:58:10.825Z,5.25
2022-08-20T12:00:38.226Z,5.50
2022-08-20T12:03:09.116Z,5.78
2022-08-20T12:05:39.203Z,6.88
2022-08-20T12:08:07.213Z,4.90
2022-08-20T12:10:34.580Z,4.93
2022-08-20T12:13:05.012Z,4.38
2022-08-20T12:15:36.797Z,5.70
2022-08-20T12:18:08.491Z,5.00
2022-08-20T12:20:37.521Z,4.45
2022-08-20T12:23:05.365Z,3.83
2022-08-20T12:25:33.367Z,3.90
2022-08-20T12:28:00.627Z,3.90
2022-08-20T12:30:27.678Z,4.30
2022-08-20T12:32:57.865Z,3.72
2022-08-20T12:35:25.629Z,3.60
2022-08-20T12:37:52.899Z,4.30
2022-08-20T12:40:31.974Z,4.28
2022-08-20T12:43:05.533Z,4.00
2022-08-20T12:45:34.478Z,3.80
2022-08-20T12:48:12.190Z,4.10
2022-08-20T12:50:43.051Z,3.65
2022-08-20T12:53:10.424Z,3.65
2022-08-20T12:55:39.764Z,4.00
2022-08-20T12:58:10.436Z,3.63
2022-08-20T13:00:48.654Z,3.40
2022-08-20T13:03:21.831Z,3.80
2022-08-20T13:05:49.893Z,3.42
2022-08-20T13:08:19.911Z,3.50
2022-08-20T13:10:47.043Z,4.10
2022-08-20T13:13:17.613Z,3.40
2022-08-20T13:15:48.439Z,3.92
2022-08-20T13:18:15.395Z,3.30
2022-08-20T13:20:42.644Z,3.78
2022-08-20T13:23:09.563Z,3.55
2022-08-20T13:25:36.544Z,3.70
2022-08-20T13:28:04.881Z,3.42
2022-08-20T13:30:34.713Z,3.33
2022-08-20T13:33:02.614Z,3.45
2022-08-20T13:35:31.194Z,3.72
2022-08-20T13:37:58.143Z,3.35
2022-08-20T13:40:25.903Z,3.25
2022-08-20T13:42:52.870Z,2.95
2022-08-20T13:45:23.094Z,3.03
2022-08-20T13:47:55.528Z,2.83
2022-08-20T13:50:25.634Z,3.03
2022-08-20T13:52:54.251Z,3.40
2022-08-20T13:55:27.042Z,3.05
2022-08-20T13:57:56.791Z,2.80
2022-08-20T14:00:32.110Z,2.78
2022-08-20T14:03:06.091Z,2.88
2022-08-20T14:05:35.061Z,2.63
2022-08-20T14:08:17.983Z,2.70
2022-08-20T14:10:47.863Z,2.60
2022-08-20T14:13:22.137Z,2.42
2022-08-20T14:15:50.012Z,2.75
2022-08-20T14:18:17.013Z,2.42
2022-08-20T14:20:45.806Z,2.65
2022-08-20T14:23:14.534Z,2.63
2022-08-20T14:25:45.708Z,2.88
2022-08-20T14:28:18.354Z,2.35
2022-08-20T14:30:53.487Z,2.40
2022-08-20T14:33:22.792Z,2.28
2022-08-20T14:35:50.195Z,2.40
2022-08-20T14:38:17.219Z,2.30
2022-08-20T14:40:44.343Z,2.15
2022-08-20T14:43:11.285Z,2.10
2022-08-20T14:45:40.606Z,2.20
2022-08-20T14:48:09.507Z,2.10
2022-08-20T14:50:37.892Z,2.67
2022-08-20T14:53:05.862Z,2.25
2022-08-20T14:55:37.451Z,2.10
2022-08-20T14:58:13.691Z,1.90
2022-08-20T15:00:42.924Z,2.00
2022-08-20T15:03:09.982Z,2.15
2022-08-20T15:05:39.714Z,2.22
2022-08-20T15:08:10.424Z,2.30
2022-08-20T15:10:39.347Z,2.30
2022-08-20T15:13:06.644Z,2.15
2022-08-20T15:15:34.989Z,2.38
2022-08-20T15:18:04.916Z,1.80
2022-08-20T15:20:35.311Z,2.10
2022-08-20T15:23:05.239Z,1.90
2022-08-20T15:25:37.715Z,2.05
2022-08-20T15:28:08.771Z,1.80
2022-08-20T15:30:38.874Z,1.80
2022-08-20T15:33:07.778Z,2.00
2022-08-20T15:35:35.488Z,2.05
2022-08-20T15:38:02.775Z,2.20
2022-08-20T15:40:33.140Z,1.88
2022-08-20T15:43:03.635Z,1.90
2022-08-20T15:45:32.551Z,2.20
2022-08-20T15:48:19.022Z,1.98
2022-08-20T15:50:57.634Z,1.70
2022-08-20T15:53:39.656Z,1.63
2022-08-20T15:56:40.437Z,1.77
2022-08-20T16:00:00.334Z,1.63
2022-08-20T16:02:48.204Z,1.70
2022-08-20T16:06:02.645Z,1.80
2022-08-20T16:09:01.953Z,1.67
2022-08-20T16:11:59.221Z,1.58
2022-08-20T16:14:36.676Z,1.65
2022-08-20T16:17:13.548Z,1.70
2022-08-20T16:20:22.281Z,1.73
2022-08-20T16:22:50.264Z,1.85
2022-08-20T16:25:22.708Z,1.80
2022-08-20T16:28:28.003Z,1.65
2022-08-20T16:31:20.556Z,1.80
2022-08-20T16:34:25.725Z,1.48
2022-08-20T16:37:26.026Z,1.50
2022-08-20T16:40:22.460Z,1.50
2022-08-20T16:42:53.056Z,1.60
2022-08-20T16:45:52.831Z,1.92
2022-08-20T16:48:20.379Z,1.70
2022-08-20T16:51:11.796Z,1.60
2022-08-20T16:53:39.154Z,1.67
2022-08-20T16:56:06.462Z,1.60
2022-08-20T16:58:33.752Z,1.40
2022-08-20T17:01:10.723Z,1.45
2022-08-20T17:03:39.928Z,1.60
2022-08-20T17:06:24.657Z,1.70
2022-08-20T17:08:52.376Z,1.50
2022-08-20T17:11:26.706Z,1.27
2022-08-20T17:14:15.610Z,1.50
2022-08-20T17:16:52.724Z,1.48
2022-08-20T17:19:30.381Z,1.50
2022-08-20T17:22:18.916Z,1.45
2022-08-20T17:24:46.029Z,1.58
2022-08-20T17:27:28.444Z,1.60
2022-08-20T17:30:25.282Z,1.40
2022-08-20T17:33:03.182Z,1.25
2022-08-20T17:35:38.134Z,1.40
2022-08-20T17:38:05.907Z,1.40
2022-08-20T17:40:45.986Z,1.52
2022-08-20T17:43:31.617Z,1.40
2022-08-20T17:46:03.833Z,1.75
2022-08-20T17:48:39.442Z,1.20
2022-08-20T17:51:19.307Z,1.92
2022-08-20T17:53:58.871Z,1.33
2022-08-20T17:56:34.571Z,1.60
2022-08-20T17:59:36.346Z,1.55
2022-08-20T18:02:06.297Z,1.23
2022-08-20T18:04:33.363Z,1.27
2022-08-20T18:07:21.727Z,1.33
2022-08-20T18:10:17.348Z,1.60
2022-08-20T18:13:09.310Z,1.80
2022-08-20T18:16:05.683Z,1.38
2022-08-20T18:19:13.073Z,1.80
2022-08-20T18:22:01.960Z,1.55
2022-08-20T18:25:07.494Z,1.73
2022-08-20T18:27:46.520Z,1.40
2022-08-20T18:30:23.580Z,1.77
2022-08-20T18:33:07.957Z,1.40
2022-08-20T18:35:46.173Z,1.80
2022-08-20T18:38:22.579Z,1.63
2022-08-20T18:40:54.895Z,1.75
2022-08-20T18:43:31.370Z,1.42
2022-08-20T18:46:19.991Z,1.50
2022-08-20T18:48:57.337Z,1.50
2022-08-20T18:51:35.652Z,1.55
2022-08-20T18:54:05.672Z,1.73
2022-08-20T18:56:39.077Z,1.45
2022-08-20T18:59:19.245Z,1.52
2022-08-20T19:01:50.033Z,1.80
2022-08-20T19:04:31.930Z,1.52
2022-08-20T19:07:06.000Z,1.75
2022-08-20T19:10:12.835Z,1.55
2022-08-20T19:13:35.933Z,1.35
2022-08-20T19:16:11.225Z,1.45
2022-08-20T19:18:54.809Z,1.63
2022-08-20T19:21:42.260Z,1.60
2022-08-20T19:24:13.852Z,1.67
2022-08-20T19:26:51.252Z,1.75
2022-08-20T19:29:29.446Z,1.85
2022-08-20T19:32:07.505Z,1.70
2022-08-20T19:34:36.018Z,1.80
2022-08-20T19:37:32.786Z,1.55
2022-08-20T19:40:26.519Z,1.70
2022-08-20T19:42:59.568Z,1.63
2022-08-20T19:45:37.837Z,1.75
2022-08-20T19:48:33.792Z,1.63
2022-08-20T19:51:14.798Z,1.50
2022-08-20T19:53:49.804Z,1.52
2022-08-20T19:56:24.914Z,1.90
2022-08-20T19:59:08.398Z,1.77
2022-08-20T20:01:37.222Z,1.70
2022-08-20T20:04:16.431Z,1.67
2022-08-20T20:06:48.085Z,1.50
2022-08-20T20:09:29.392Z,1.63
2022-08-20T20:12:10.600Z,1.80
2022-08-20T20:14:53.219Z,1.55
2022-08-20T20:17:26.975Z,1.55
2022-08-20T20:19:59.504Z,1.80
2022-08-20T20:22:34.318Z,1.60
2022-08-20T20:25:13.581Z,1.50
2022-08-20T20:27:53.933Z,1.60
2022-08-20T20:30:31.982Z,1.58
2022-08-20T20:33:10.643Z,1.67
2022-08-20T20:35:37.829Z,1.55
2022-08-20T20:38:25.588Z,1.50
2022-08-20T20:40:59.156Z,1.65
2022-08-20T20:43:32.326Z,1.40
2022-08-20T20:46:20.109Z,1.48
2022-08-20T20:49:21.525Z,1.45
2022-08-20T20:51:57.315Z,1.50
2022-08-20T20:54:46.385Z,1.65
2022-08-20T20:57:19.169Z,1.48
2022-08-20T21:00:00.730Z,1.70
2022-08-20T21:02:27.724Z,1.30
2022-08-20T21:04:58.204Z,1.48
2022-08-20T21:07:25.296Z,1.50
2022-08-20T21:09:56.836Z,1.73
2022-08-20T21:12:24.097Z,1.48
2022-08-20T21:14:51.578Z,1.35
2022-08-20T21:17:22.702Z,1.45
2022-08-20T21:19:52.322Z,1.50
2022-08-20T21:22:20.857Z,1.50
2022-08-20T21:24:51.665Z,1.40
2022-08-20T21:27:26.541Z,1.50
2022-08-20T21:29:54.654Z,1.30
2022-08-20T21:32:22.361Z,1.60
2022-08-20T21:34:50.528Z,1.15
2022-08-20T21:37:18.646Z,1.50
2022-08-20T21:39:45.766Z,1.55
2022-08-20T21:42:28.288Z,1.50
2022-08-20T21:44:57.637Z,1.38
2022-08-20T21:47:25.639Z,1.60
2022-08-20T21:49:52.950Z,1.35
2022-08-20T21:52:19.930Z,1.42
2022-08-20T21:54:47.122Z,1.33
2022-08-20T21:57:27.910Z,1.33
2022-08-20T21:59:56.346Z,1.33
2022-08-20T22:02:25.387Z,1.40
2022-08-20T22:04:53.973Z,1.20
2022-08-20T22:07:21.936Z,1.40
2022-08-20T22:09:51.736Z,1.42
2022-08-20T22:12:24.070Z,1.30
2022-08-20T22:14:51.962Z,1.23
2022-08-20T22:17:19.581Z,1.42
2022-08-20T22:19:46.640Z,1.67
2022-08-20T22:22:15.651Z,1.30
2022-08-20T22:24:42.875Z,1.48
2022-08-20T22:27:10.020Z,1.38
2022-08-20T22:29:37.020Z,1.35
2022-08-20T22:32:05.023Z,1.60
2022-08-20T22:34:37.920Z,1.40
2022-08-20T22:37:05.281Z,1.23
2022-08-20T22:39:32.820Z,1.23
2022-08-20T22:41:59.772Z,1.17
2022-08-20T22:44:27.847Z,1.48
2022-08-20T22:47:02.466Z,1.25
2022-08-20T22:49:34.376Z,1.50
2022-08-20T22:52:01.836Z,1.50
2022-08-20T22:54:28.948Z,1.25
2022-08-20T22:56:56.222Z,1.30
2022-08-20T22:59:24.328Z,1.40
2022-08-20T23:01:52.468Z,1.60
2022-08-20T23:04:29.571Z,1.30
2022-08-20T23:06:57.932Z,1.20
2022-08-20T23:09:25.596Z,1.50
2022-08-20T23:11:53.324Z,1.58
2022-08-20T23:14:20.839Z,1.23
2022-08-20T23:17:25.556Z,1.50
2022-08-20T23:19:53.054Z,1.45
2022-08-20T23:22:20.759Z,1.58
2022-08-20T23:24:47.770Z,1.50
2022-08-20T23:27:19.623Z,1.58
2022-08-20T23:29:47.745Z,1.60
2022-08-20T23:32:14.662Z,1.42
2022-08-20T23:34:42.032Z,1.42
2022-08-20T23:37:09.730Z,1.38
2022-08-20T23:39:37.332Z,1.58
2022-08-20T23:42:04.454Z,1.45
2022-08-20T23:44:31.448Z,1.65
2022-08-20T23:47:02.586Z,1.50
2022-08-20T23:49:31.364Z,1.42
2022-08-20T23:52:00.644Z,1.63
2022-08-20T23:54:32.699Z,1.50
2022-08-20T23:56:59.742Z,1.50
2022-08-20T23:59:26.712Z,1.52
